Time;durP1;ratioP1;P1;durP2;ratioP2;P2;SDS_P1;SDS_P2;PMS_P1;PMS_P2;Temp;Humidity;BMP_temperature;BMP_pressure;BME280_temperature;BME280_humidity;BME280_pressure;Samples;Min_cycle;Max_cycle;Signal;HPM_P1;HPM_P2
2024/04/19 00:00:03;;;;;;;0.90;0.70;;;10.00;75.10;;;;;;6628614;21;19999;-66
2024/04/19 00:02:29;;;;;;;1.45;1.30;;;10.00;75.50;;;;;;6629125;21;20422;-66
2024/04/19 00:04:55;;;;;;;2.22;1.00;;;9.90;75.70;;;;;;6581403;21;20408;-66
2024/04/19 00:07:21;;;;;;;5.85;1.13;;;9.90;75.80;;;;;;6628104;21;20000;-66
2024/04/19 00:09:47;;;;;;;2.78;1.33;;;9.90;76.20;;;;;;6627799;21;19992;-66
2024/04/19 00:12:13;;;;;;;2.33;1.02;;;9.80;76.50;;;;;;6627806;21;20023;-66
2024/04/19 00:14:39;;;;;;;1.40;0.90;;;9.80;76.90;;;;;;6628268;21;20314;-66
2024/04/19 00:17:05;;;;;;;2.15;1.35;;;9.70;77.30;;;;;;6628363;21;20341;-66
2024/04/19 00:19:31;;;;;;;3.97;1.52;;;9.70;78.00;;;;;;6627764;21;20066;-66
2024/04/19 00:21:57;;;;;;;3.22;1.05;;;9.60;78.20;;;;;;6628746;21;19992;-66
2024/04/19 00:24:23;;;;;;;6.93;1.40;;;9.60;78.40;;;;;;6627390;21;20003;-66
2024/04/19 00:26:49;;;;;;;3.70;1.55;;;9.60;78.50;;;;;;6626372;21;20431;-72
2024/04/19 00:29:15;;;;;;;1.83;1.20;;;9.60;78.70;;;;;;6583469;21;19995;-73
2024/04/19 00:31:41;;;;;;;4.03;1.50;;;9.60;79.00;;;;;;6630976;21;20006;-73
2024/04/19 00:34:07;;;;;;;2.20;1.50;;;9.60;79.20;;;;;;6630009;21;20011;-73
2024/04/19 00:36:33;;;;;;;4.88;1.88;;;9.60;79.50;;;;;;6584230;21;20006;-73
2024/04/19 00:38:59;;;;;;;2.40;1.70;;;9.60;79.60;;;;;;6583357;21;19988;-73
2024/04/19 00:41:25;;;;;;;3.55;1.35;;;9.60;79.90;;;;;;6631646;21;20308;-73
2024/04/19 00:43:57;;;;;;;1.52;1.27;;;9.60;80.00;;;;;;6630460;21;20003;-73
2024/04/19 00:46:23;;;;;;;7.28;2.08;;;9.60;79.90;;;;;;6585012;21;20010;-73
2024/04/19 00:48:49;;;;;;;2.28;1.33;;;9.60;79.90;;;;;;6582968;21;20007;-73
2024/04/19 00:51:16;;;;;;;2.33;1.20;;;9.60;80.10;;;;;;6630634;21;19995;-72
2024/04/19 00:53:42;;;;;;;2.25;1.77;;;9.60;80.50;;;;;;6629543;21;20003;-72
2024/04/19 00:56:08;;;;;;;2.10;1.42;;;9.50;81.40;;;;;;6630495;21;20011;-73
2024/04/19 00:58:34;;;;;;;2.58;1.20;;;9.40;81.80;;;;;;6629306;21;19995;-72
2024/04/19 01:01:03;;;;;;;2.35;1.50;;;9.40;82.00;;;;;;6630686;21;20095;-73
2024/04/19 01:03:30;;;;;;;1.83;1.20;;;9.40;81.90;;;;;;6628802;21;20000;-72
2024/04/19 01:05:56;;;;;;;4.85;1.75;;;9.40;82.30;;;;;;6631782;21;20000;-72
2024/04/19 01:08:23;;;;;;;2.33;1.50;;;9.40;82.30;;;;;;6628291;21;20008;-72
2024/04/19 01:10:49;;;;;;;2.83;1.65;;;9.40;82.60;;;;;;6629050;21;20359;-72
2024/04/19 01:13:15;;;;;;;7.53;1.73;;;9.40;83.30;;;;;;6629321;21;19995;-66
2024/04/19 01:15:41;;;;;;;2.97;1.40;;;9.40;83.40;;;;;;6629960;21;20010;-72
2024/04/19 01:18:07;;;;;;;2.78;1.50;;;9.40;83.50;;;;;;6629723;21;19995;-73
2024/04/19 01:20:34;;;;;;;2.78;1.60;;;9.40;83.40;;;;;;6628655;21;20006;-66
2024/04/19 01:23:00;;;;;;;3.58;1.75;;;9.40;83.70;;;;;;6629675;21;20000;-66
2024/04/19 01:25:33;;;;;;;1.77;1.42;;;9.50;83.50;;;;;;6629796;21;20069;-66
2024/04/19 01:28:05;;;;;;;1.52;1.42;;;9.50;83.50;;;;;;6629287;21;19996;-67
2024/04/19 01:30:30;;;;;;;1.70;1.30;;;9.50;83.50;;;;;;6629773;21;20366;-66
2024/04/19 01:32:57;;;;;;;2.97;1.20;;;9.60;83.30;;;;;;6630712;21;19995;-66
2024/04/19 01:35:22;;;;;;;3.13;1.40;;;9.60;83.40;;;;;;6630184;21;20310;-72
2024/04/19 01:37:49;;;;;;;1.55;1.30;;;9.60;83.40;;;;;;6629743;21;19995;-66
2024/04/19 01:40:15;;;;;;;5.60;1.52;;;9.60;83.60;;;;;;6628959;21;19999;-67
2024/04/19 01:42:41;;;;;;;1.73;1.25;;;9.60;83.70;;;;;;6583219;21;19995;-72
2024/04/19 01:45:07;;;;;;;1.40;1.05;;;9.70;83.70;;;;;;6629892;21;20104;-72
2024/04/19 01:47:43;;;;;;;1.80;1.17;;;9.70;84.20;;;;;;6630115;21;20398;-71
2024/04/19 01:50:09;;;;;;;3.13;1.50;;;9.70;83.60;;;;;;6585835;21;20402;-66
2024/04/19 01:52:35;;;;;;;3.63;1.05;;;9.70;83.70;;;;;;6629456;21;19999;-66
2024/04/19 01:55:02;;;;;;;1.63;1.45;;;9.70;83.80;;;;;;6629075;21;20000;-67
2024/04/19 01:57:28;;;;;;;1.50;1.05;;;9.70;83.80;;;;;;6628866;21;20377;-66
2024/04/19 01:59:54;;;;;;;2.58;1.17;;;9.80;83.70;;;;;;6629107;21;19999;-66
2024/04/19 02:02:20;;;;;;;1.40;1.30;;;9.80;83.70;;;;;;6629488;21;20007;-66
2024/04/19 02:04:49;;;;;;;2.08;1.20;;;9.80;83.80;;;;;;6629788;21;20031;-66
2024/04/19 02:07:16;;;;;;;1.52;1.17;;;9.80;83.80;;;;;;6630037;21;20003;-66
2024/04/19 02:10:00;;;;;;;2.38;1.40;;;9.80;83.70;;;;;;6627546;21;19996;-66
2024/04/19 02:12:26;;;;;;;1.67;1.08;;;9.90;83.60;;;;;;6588039;21;20003;-66
2024/04/19 02:14:59;;;;;;;3.55;1.30;;;9.90;83.50;;;;;;6629759;21;20019;-66
2024/04/19 02:17:25;;;;;;;1.70;1.50;;;9.90;83.40;;;;;;6629252;21;20003;-66
2024/04/19 02:19:51;;;;;;;1.85;1.13;;;9.90;83.40;;;;;;6627428;21;20007;-66
2024/04/19 02:22:17;;;;;;;1.88;0.95;;;9.90;83.30;;;;;;6627284;21;20008;-66
2024/04/19 02:24:43;;;;;;;4.55;2.25;;;9.90;83.40;;;;;;6628545;21;20753;-66
2024/04/19 02:30:52;;;;;;;1.27;1.00;;;9.90;83.60;;;;;;6628382;21;20429;-66
2024/04/19 02:32:40;;;;;;;2.72;1.40;;;9.90;84.00;;;;;;6589015;21;20015;-66
2024/04/19 02:35:06;;;;;;;3.00;1.70;;;9.80;84.20;;;;;;6628941;21;19996;-66
2024/04/19 02:37:32;;;;;;;3.80;2.28;;;9.80;84.20;;;;;;6629007;21;20011;-72
2024/04/19 02:39:59;;;;;;;3.05;1.92;;;9.80;84.40;;;;;;6628428;21;19995;-72
2024/04/19 02:42:24;;;;;;;1.95;1.48;;;9.80;84.60;;;;;;6628678;21;20004;-73
2024/04/19 02:44:50;;;;;;;2.30;1.48;;;9.70;84.60;;;;;;6629436;21;20000;-73
2024/04/19 02:47:16;;;;;;;2.70;1.63;;;9.70;85.00;;;;;;6629292;21;20011;-72
2024/04/19 02:49:42;;;;;;;2.08;1.52;;;9.70;85.10;;;;;;6627757;21;19996;-72
2024/04/19 02:52:08;;;;;;;2.78;1.75;;;9.70;85.80;;;;;;6627165;21;19996;-73
2024/04/19 02:54:34;;;;;;;2.47;1.58;;;9.70;85.10;;;;;;6628421;21;20030;-72
2024/04/19 02:57:00;;;;;;;1.63;1.35;;;9.70;85.10;;;;;;6627940;21;20007;-72
2024/04/19 02:59:26;;;;;;;4.22;1.80;;;9.70;85.10;;;;;;6629082;21;19996;-72
2024/04/19 03:01:52;;;;;;;1.73;1.38;;;9.70;85.30;;;;;;6629089;21;20339;-72
2024/04/19 03:04:18;;;;;;;8.50;1.92;;;9.70;85.70;;;;;;6628375;21;20291;-72
2024/04/19 03:06:44;;;;;;;1.45;1.20;;;9.60;85.70;;;;;;6628013;21;20028;-72
2024/04/19 03:09:10;;;;;;;1.33;1.17;;;9.60;85.90;;;;;;6627635;21;20000;-73
2024/04/19 03:11:36;;;;;;;1.88;1.35;;;9.60;86.30;;;;;;6628522;21;20291;-72
2024/04/19 03:14:02;;;;;;;3.78;1.08;;;9.60;86.80;;;;;;6628328;21;19999;-72
2024/04/19 03:16:28;;;;;;;3.97;1.30;;;9.50;86.80;;;;;;6582796;21;20003;-72
2024/04/19 03:18:54;;;;;;;2.88;1.10;;;9.50;86.90;;;;;;6627927;21;19995;-72
2024/04/19 03:21:20;;;;;;;1.83;1.42;;;9.60;86.90;;;;;;6628228;21;20011;-72
2024/04/19 03:23:45;;;;;;;1.50;1.10;;;9.60;86.80;;;;;;6628164;21;19999;-72
2024/04/19 03:26:12;;;;;;;1.27;1.17;;;9.60;86.60;;;;;;6582540;21;20015;-73
2024/04/19 03:28:38;;;;;;;2.10;1.50;;;9.70;86.60;;;;;;6627691;21;20007;-72
2024/04/19 03:31:08;;;;;;;1.15;0.93;;;9.70;86.40;;;;;;6628269;21;19996;-66
2024/04/19 03:33:34;;;;;;;1.73;1.40;;;9.70;86.50;;;;;;6581855;21;20411;-66
2024/04/19 03:36:05;;;;;;;1.73;1.20;;;9.70;86.50;;;;;;6628807;21;20011;-66
2024/04/19 03:38:31;;;;;;;1.30;1.20;;;9.70;86.60;;;;;;6627318;21;20000;-66
2024/04/19 03:41:09;;;;;;;2.17;1.30;;;9.70;87.30;;;;;;6628591;21;20006;-71
2024/04/19 03:43:41;;;;;;;1.23;1.00;;;9.70;86.70;;;;;;6542092;21;20299;-66
2024/04/19 03:46:07;;;;;;;1.52;1.30;;;9.60;86.90;;;;;;6628631;21;20010;-67
2024/04/19 03:48:32;;;;;;;2.33;1.15;;;9.60;87.10;;;;;;6627832;21;20007;-67
2024/04/19 03:50:59;;;;;;;2.00;1.23;;;9.60;87.10;;;;;;6627612;21;19996;-66
2024/04/19 03:53:24;;;;;;;1.58;1.35;;;9.60;87.20;;;;;;6627913;21;20024;-66
2024/04/19 03:55:50;;;;;;;1.40;1.23;;;9.60;87.30;;;;;;6538485;21;20449;-66
2024/04/19 03:58:16;;;;;;;1.92;1.48;;;9.60;87.40;;;;;;6627258;21;20007;-72
2024/04/19 04:00:42;;;;;;;1.70;1.20;;;9.60;87.30;;;;;;6627347;21;20460;-72
2024/04/19 04:03:08;;;;;;;1.88;1.23;;;9.60;87.30;;;;;;6581721;21;19996;-71
2024/04/19 04:05:34;;;;;;;1.70;1.50;;;9.60;87.50;;;;;;6582046;21;20007;-72
2024/04/19 04:08:00;;;;;;;2.92;1.30;;;9.60;87.60;;;;;;6628519;21;20031;-71
2024/04/19 04:10:27;;;;;;;1.83;1.30;;;9.60;87.60;;;;;;6627461;21;19999;-71
2024/04/19 04:12:53;;;;;;;1.90;1.23;;;9.60;88.00;;;;;;6627422;21;20000;-71
2024/04/19 04:15:18;;;;;;;2.17;1.75;;;9.60;88.00;;;;;;6628649;21;20110;-73
2024/04/19 04:17:44;;;;;;;1.60;1.30;;;9.60;88.10;;;;;;6628760;21;19996;-71
2024/04/19 04:20:13;;;;;;;1.90;1.17;;;9.60;87.90;;;;;;6627932;21;20485;-71
2024/04/19 04:22:39;;;;;;;2.47;1.77;;;9.60;88.10;;;;;;6627766;21;19992;-71
2024/04/19 04:25:08;;;;;;;2.42;1.58;;;9.60;88.40;;;;;;6626945;21;20003;-71
2024/04/19 04:27:34;;;;;;;2.90;1.75;;;9.60;88.60;;;;;;6626881;21;20000;-70
2024/04/19 04:30:00;;;;;;;1.92;1.70;;;9.60;88.70;;;;;;6580870;21;20323;-71
2024/04/19 04:32:29;;;;;;;2.20;1.55;;;9.60;88.60;;;;;;6627317;21;19999;-71
2024/04/19 04:34:55;;;;;;;1.42;1.25;;;9.60;88.50;;;;;;6628231;21;19995;-71
2024/04/19 04:37:21;;;;;;;1.67;1.40;;;9.60;88.50;;;;;;6582372;21;20006;-71
2024/04/19 04:39:47;;;;;;;1.75;1.30;;;9.70;88.40;;;;;;6625538;21;19995;-66
2024/04/19 04:42:16;;;;;;;1.58;1.42;;;9.70;88.30;;;;;;6627419;21;19996;-65
2024/04/19 04:44:42;;;;;;;1.80;1.20;;;9.80;88.30;;;;;;6626478;21;20007;-65
2024/04/19 04:47:08;;;;;;;3.17;1.42;;;9.70;88.50;;;;;;6627713;21;20085;-65
2024/04/19 04:49:34;;;;;;;2.22;1.52;;;9.80;88.50;;;;;;6627634;21;20407;-66
2024/04/19 04:52:00;;;;;;;1.77;1.58;;;9.80;88.60;;;;;;6627666;21;20034;-66
2024/04/19 04:54:26;;;;;;;3.80;1.25;;;9.80;88.60;;;;;;6628226;21;19999;-66
2024/04/19 04:56:52;;;;;;;1.40;1.13;;;9.80;88.50;;;;;;6626795;21;20307;-66
2024/04/19 04:59:18;;;;;;;1.60;1.17;;;9.90;88.30;;;;;;6627536;21;19992;-66
2024/04/19 05:01:44;;;;;;;2.20;1.65;;;9.90;88.60;;;;;;6627766;21;20411;-66
2024/04/19 05:04:10;;;;;;;1.52;1.00;;;9.90;88.80;;;;;;6627750;21;19999;-71
2024/04/19 05:06:35;;;;;;;1.10;1.00;;;9.80;88.80;;;;;;6580662;21;19987;-71
2024/04/19 05:09:01;;;;;;;1.08;0.88;;;9.90;88.70;;;;;;6627309;21;20064;-71
2024/04/19 05:11:27;;;;;;;1.15;0.95;;;10.00;88.60;;;;;;6627741;21;20495;-72
2024/04/19 05:13:52;;;;;;;2.55;0.93;;;10.00;88.40;;;;;;6627839;21;20000;-66
2024/04/19 05:16:18;;;;;;;1.40;1.20;;;10.00;88.30;;;;;;6630538;21;20060;-66
2024/04/19 05:18:44;;;;;;;1.58;1.10;;;10.00;88.40;;;;;;6629359;21;20418;-65
2024/04/19 05:21:10;;;;;;;1.10;1.00;;;10.00;88.60;;;;;;6630339;21;20410;-65
2024/04/19 05:23:35;;;;;;;1.13;0.93;;;10.10;88.50;;;;;;6582326;21;19988;-66
2024/04/19 05:26:02;;;;;;;1.83;1.02;;;10.10;88.60;;;;;;6582842;21;20452;-66
2024/04/19 05:28:27;;;;;;;1.13;1.00;;;10.10;88.70;;;;;;6628712;21;19992;-66
2024/04/19 05:30:53;;;;;;;1.17;1.02;;;10.10;88.80;;;;;;6630222;21;19996;-66
2024/04/19 05:33:19;;;;;;;1.30;0.80;;;10.20;88.80;;;;;;6629825;21;20440;-71
2024/04/19 05:35:45;;;;;;;1.30;1.20;;;10.20;88.70;;;;;;6630065;21;19992;-66
2024/04/19 05:38:10;;;;;;;1.25;0.90;;;10.20;88.70;;;;;;6582761;21;19995;-66
2024/04/19 05:40:36;;;;;;;1.42;1.00;;;10.30;88.70;;;;;;6628406;21;19995;-67
2024/04/19 05:43:02;;;;;;;1.50;1.02;;;10.30;88.70;;;;;;6582830;21;19992;-67
2024/04/19 05:45:28;;;;;;;1.40;1.02;;;10.40;88.60;;;;;;6629800;21;20000;-67
2024/04/19 05:47:53;;;;;;;1.42;0.80;;;10.40;88.40;;;;;;6629867;21;19992;-66
2024/04/19 05:50:19;;;;;;;1.77;1.00;;;10.50;88.30;;;;;;6629243;21;20043;-66
2024/04/19 05:52:46;;;;;;;2.15;1.17;;;10.60;88.10;;;;;;6628915;21;20004;-66
2024/04/19 05:55:14;;;;;;;3.00;0.90;;;10.70;87.90;;;;;;6581347;21;20004;-66
2024/04/19 05:57:39;;;;;;;0.68;0.60;;;10.70;87.80;;;;;;6628825;21;19999;-66
2024/04/19 06:00:06;;;;;;;1.13;0.88;;;10.80;87.70;;;;;;6629145;21;20004;-66
2024/04/19 06:02:31;;;;;;;1.08;0.98;;;10.80;87.50;;;;;;6629026;21;20003;-66
2024/04/19 06:05:18;;;;;;;1.08;0.73;;;10.80;87.40;;;;;;6629045;21;19996;-71
2024/04/19 06:07:43;;;;;;;1.80;1.05;;;10.90;87.30;;;;;;6628450;21;20035;-71
2024/04/19 06:10:09;;;;;;;0.70;0.50;;;10.90;87.40;;;;;;6582341;21;19991;-71
2024/04/19 06:12:35;;;;;;;2.40;1.02;;;11.00;87.40;;;;;;6628531;21;20007;-71
2024/04/19 06:15:00;;;;;;;1.60;0.80;;;11.00;87.20;;;;;;6628761;21;19988;-70
2024/04/19 06:17:26;;;;;;;1.42;0.85;;;11.00;87.20;;;;;;6630059;21;20003;-71
2024/04/19 06:19:52;;;;;;;1.30;1.05;;;11.10;87.30;;;;;;6626938;21;19992;-70
2024/04/19 06:22:17;;;;;;;1.00;0.95;;;11.10;87.50;;;;;;6572677;21;20012;-71
2024/04/19 06:24:43;;;;;;;1.88;1.20;;;11.10;87.60;;;;;;6573215;21;20008;-71
2024/04/19 06:27:08;;;;;;;0.80;0.55;;;11.10;87.50;;;;;;6570458;21;20006;-71
2024/04/19 06:29:34;;;;;;;2.30;1.17;;;11.10;87.50;;;;;;6575223;21;20004;-71
2024/04/19 06:32:01;;;;;;;1.42;0.90;;;11.20;87.50;;;;;;6575553;21;20008;-72
2024/04/19 06:34:27;;;;;;;0.77;0.68;;;11.20;87.50;;;;;;6575853;21;20430;-71
2024/04/19 06:36:53;;;;;;;1.42;1.30;;;11.20;87.50;;;;;;6575007;21;19992;-71
2024/04/19 06:39:26;;;;;;;1.80;0.80;;;11.30;87.50;;;;;;6574819;21;20099;-72
2024/04/19 06:41:52;;;;;;;;;;;11.30;87.40;;;;;;6573966;21;20044;-65
2024/04/19 06:44:17;;;;;;;1.30;1.15;;;11.40;87.50;;;;;;6576395;21;20340;-71
2024/04/19 06:46:43;;;;;;;2.42;1.35;;;11.40;87.20;;;;;;6568270;21;20010;-72
2024/04/19 06:49:09;;;;;;;1.30;0.90;;;11.50;87.00;;;;;;6573199;21;20439;-72
2024/04/19 06:51:34;;;;;;;4.00;1.63;;;11.50;86.90;;;;;;6569869;21;19992;-72
2024/04/19 06:54:01;;;;;;;3.30;1.10;;;11.60;87.00;;;;;;6567251;21;20004;-72
2024/04/19 06:56:27;;;;;;;2.47;1.00;;;11.60;87.00;;;;;;6566756;21;20007;-72
2024/04/19 06:58:52;;;;;;;1.90;0.80;;;11.70;87.00;;;;;;6569837;21;19997;-73
2024/04/19 07:01:18;;;;;;;1.80;1.13;;;11.80;86.90;;;;;;6565235;21;20296;-72
2024/04/19 07:03:44;;;;;;;6.63;1.73;;;11.80;86.90;;;;;;6564855;21;20385;-73
2024/04/19 07:06:14;;;;;;;4.35;1.88;;;11.90;86.90;;;;;;6570637;21;19996;-72
2024/04/19 07:08:40;;;;;;;2.30;0.80;;;11.90;86.80;;;;;;6572826;21;20001;-72
2024/04/19 07:11:06;;;;;;;2.83;0.68;;;12.00;86.60;;;;;;6569444;21;21468;-66
2024/04/19 07:13:47;;;;;;;1.00;0.60;;;12.00;86.60;;;;;;6571174;21;20015;-66
2024/04/19 07:16:14;;;;;;;3.42;1.15;;;12.10;86.50;;;;;;6574749;21;20048;-73
2024/04/19 07:18:40;;;;;;;4.97;1.75;;;12.10;86.30;;;;;;6574763;21;20010;-73
2024/04/19 07:21:05;;;;;;;1.15;0.93;;;12.10;86.40;;;;;;6572125;21;19997;-73
2024/04/19 07:23:31;;;;;;;2.50;0.80;;;12.10;86.50;;;;;;6625667;21;20062;-72
2024/04/19 07:26:09;;;;;;;2.28;1.08;;;12.10;86.40;;;;;;6627820;21;20035;-72
2024/04/19 07:28:34;;;;;;;4.68;0.98;;;12.20;86.40;;;;;;6626476;21;20083;-72
2024/04/19 07:31:00;;;;;;;5.40;1.55;;;12.20;86.30;;;;;;6627795;21;20399;-71
2024/04/19 07:33:26;;;;;;;6.22;1.65;;;12.30;86.10;;;;;;6581604;21;20427;-72
2024/04/19 07:35:54;;;;;;;1.80;0.73;;;12.30;86.10;;;;;;6580991;21;20077;-74
2024/04/19 07:38:19;;;;;;;1.80;0.52;;;12.20;86.00;;;;;;6581027;21;19999;-71
2024/04/19 07:40:45;;;;;;;5.57;1.15;;;12.30;86.10;;;;;;6627862;21;20014;-72
2024/04/19 07:43:11;;;;;;;3.80;1.00;;;12.20;86.00;;;;;;6616728;21;20053;-72
2024/04/19 07:45:37;;;;;;;1.00;0.90;;;12.20;86.10;;;;;;6579298;21;20010;-73
2024/04/19 07:48:07;;;;;;;2.08;0.70;;;12.10;86.10;;;;;;6626556;21;20000;-73
2024/04/19 07:50:32;;;;;;;2.60;0.90;;;12.00;86.30;;;;;;6623990;21;19996;-73
2024/04/19 07:52:58;;;;;;;3.65;1.48;;;11.90;86.10;;;;;;6626886;21;20064;-73
2024/04/19 07:55:24;;;;;;;1.02;0.30;;;11.80;86.30;;;;;;6581362;21;20381;-72
2024/04/19 07:57:49;;;;;;;2.88;0.80;;;11.70;86.20;;;;;;6626135;21;20469;-66
2024/04/19 08:00:17;;;;;;;0.90;0.88;;;11.70;86.30;;;;;;6626357;21;20011;-72
2024/04/19 08:02:44;;;;;;;3.15;0.57;;;11.60;86.40;;;;;;6580971;21;20462;-67
2024/04/19 08:05:10;;;;;;;4.45;1.13;;;11.60;86.30;;;;;;6626251;21;20042;-67
2024/04/19 08:07:36;;;;;;;0.70;0.40;;;11.60;86.30;;;;;;6580142;21;19996;-67
2024/04/19 08:10:03;;;;;;;0.50;0.50;;;11.60;86.20;;;;;;6579528;21;20007;-67
2024/04/19 08:12:31;;;;;;;0.63;0.30;;;11.60;86.20;;;;;;6618564;21;20942;-72
2024/04/19 08:14:57;;;;;;;6.05;0.60;;;11.60;86.00;;;;;;6619001;21;20069;-73
2024/04/19 08:17:23;;;;;;;0.75;0.57;;;11.60;85.90;;;;;;6624335;21;20011;-73
2024/04/19 08:19:49;;;;;;;1.88;0.30;;;11.60;85.80;;;;;;6620428;21;19995;-72
2024/04/19 08:22:15;;;;;;;0.20;0.20;;;11.60;85.70;;;;;;6626009;21;20024;-72
2024/04/19 08:24:41;;;;;;;1.42;0.30;;;11.60;85.70;;;;;;6577237;21;20000;-73
2024/04/19 08:27:17;;;;;;;0.63;0.45;;;11.70;85.80;;;;;;6623060;21;20000;-73
2024/04/19 08:29:43;;;;;;;1.23;0.77;;;11.80;85.60;;;;;;6628047;21;20602;-72
2024/04/19 08:32:09;;;;;;;1.23;0.60;;;11.80;85.50;;;;;;6581288;21;19996;-72
2024/04/19 08:34:35;;;;;;;0.30;0.30;;;11.80;85.40;;;;;;6627505;21;20011;-72
2024/04/19 08:37:02;;;;;;;1.13;0.40;;;11.90;85.40;;;;;;6581436;21;20313;-73
2024/04/19 08:39:28;;;;;;;0.40;0.20;;;11.90;85.20;;;;;;6627124;21;20018;-73
2024/04/19 08:41:58;;;;;;;3.22;0.65;;;12.00;85.10;;;;;;6626657;21;20369;-73
2024/04/19 08:44:24;;;;;;;0.28;0.22;;;12.00;85.10;;;;;;6619884;21;20051;-73
2024/04/19 08:46:53;;;;;;;0.95;0.95;;;12.00;85.10;;;;;;6623177;21;20016;-73
2024/04/19 08:49:20;;;;;;;0.85;0.50;;;12.00;85.00;;;;;;6623743;21;20089;-73
2024/04/19 08:51:46;;;;;;;0.30;0.30;;;12.10;85.00;;;;;;6622491;21;20477;-73
2024/04/19 08:54:12;;;;;;;0.65;0.65;;;12.10;85.10;;;;;;6625638;21;19995;-73
2024/04/19 08:56:39;;;;;;;0.65;0.30;;;12.10;85.20;;;;;;6578775;21;20003;-73
2024/04/19 08:59:05;;;;;;;0.65;0.20;;;12.10;85.10;;;;;;6627321;21;20000;-73
2024/04/19 09:01:30;;;;;;;0.55;0.30;;;12.30;85.10;;;;;;6582744;21;20000;-73
2024/04/19 09:03:56;;;;;;;1.98;0.68;;;12.30;84.90;;;;;;6623964;21;19996;-74
2024/04/19 09:06:25;;;;;;;0.30;0.22;;;12.50;84.80;;;;;;6626870;21;19995;-74
2024/04/19 09:08:51;;;;;;;5.95;0.90;;;12.60;84.40;;;;;;6624865;21;20003;-73
2024/04/19 09:11:17;;;;;;;0.10;0.10;;;12.70;84.10;;;;;;6623779;21;20073;-74
2024/04/19 09:13:43;;;;;;;2.60;0.50;;;12.70;83.90;;;;;;6622003;21;20000;-74
2024/04/19 09:16:10;;;;;;;0.35;0.35;;;12.70;83.60;;;;;;6621420;21;19995;-73
2024/04/19 09:18:37;;;;;;;1.95;0.65;;;12.70;83.80;;;;;;6582223;21;20493;-74
2024/04/19 09:21:03;;;;;;;2.13;0.38;;;12.60;83.70;;;;;;6625836;21;20004;-73
2024/04/19 09:23:29;;;;;;;0.50;0.30;;;12.50;83.90;;;;;;6620358;21;20362;-73
2024/04/19 09:25:59;;;;;;;1.23;0.32;;;12.40;84.10;;;;;;6574763;21;20022;-73
2024/04/19 09:28:27;;;;;;;0.20;0.20;;;12.40;84.20;;;;;;6614941;21;19995;-72
2024/04/19 09:30:53;;;;;;;0.15;0.10;;;12.30;84.30;;;;;;6624927;21;20003;-72
2024/04/19 09:33:22;;;;;;;0.88;0.52;;;12.20;85.00;;;;;;6629123;21;20007;-73
2024/04/19 09:35:51;;;;;;;0.20;0.20;;;12.10;84.50;;;;;;6621789;21;20010;-73
2024/04/19 09:38:21;;;;;;;1.15;0.28;;;12.10;84.70;;;;;;6624733;21;20337;-73
2024/04/19 09:40:47;;;;;;;3.33;0.20;;;12.10;84.70;;;;;;6628185;21;20092;-73
2024/04/19 09:43:20;;;;;;;0.40;0.40;;;12.20;84.60;;;;;;6626552;21;19991;-73
2024/04/19 09:45:48;;;;;;;0.75;0.20;;;12.40;84.40;;;;;;6579251;21;20011;-73
2024/04/19 09:48:19;;;;;;;0.22;0.22;;;12.40;84.00;;;;;;6583290;21;20409;-73
2024/04/19 09:50:46;;;;;;;1.75;0.40;;;12.50;83.90;;;;;;6628387;21;19996;-74
2024/04/19 09:53:28;;;;;;;0.73;0.32;;;12.60;83.70;;;;;;6629089;21;20406;-74
2024/04/19 09:56:19;;;;;;;2.67;0.40;;;12.80;83.70;;;;;;6628960;21;20009;-74
2024/04/19 09:58:47;;;;;;;0.55;0.55;;;13.00;83.50;;;;;;6627598;21;20011;-74
2024/04/19 10:01:14;;;;;;;3.20;0.20;;;13.20;83.00;;;;;;6618140;21;20274;-74
2024/04/19 10:03:41;;;;;;;0.10;0.10;;;13.30;82.90;;;;;;6624926;21;20314;-74
2024/04/19 10:06:08;;;;;;;0.30;0.30;;;13.40;82.50;;;;;;6618916;21;20010;-74
2024/04/19 10:08:35;;;;;;;0.22;0.22;;;13.40;82.30;;;;;;6625324;21;19995;-74
2024/04/19 10:11:01;;;;;;;0.20;0.20;;;13.40;81.90;;;;;;6624671;21;20018;-74
2024/04/19 10:13:30;;;;;;;0.80;0.20;;;13.50;81.90;;;;;;6625705;21;20000;-74
2024/04/19 10:15:57;;;;;;;0.17;0.17;;;13.60;81.80;;;;;;6623800;21;20427;-74
2024/04/19 10:18:24;;;;;;;1.40;0.65;;;13.90;81.80;;;;;;6582035;21;20077;-73
2024/04/19 10:20:50;;;;;;;0.20;0.20;;;14.10;81.20;;;;;;6628672;21;20007;-74
2024/04/19 10:23:16;;;;;;;0.22;0.22;;;14.10;80.40;;;;;;6628666;21;20073;-74
2024/04/19 10:25:44;;;;;;;0.30;0.20;;;14.00;80.20;;;;;;6626931;21;19999;-74
2024/04/19 10:28:10;;;;;;;1.67;0.45;;;13.80;80.30;;;;;;6625854;21;20010;-74
2024/04/19 10:30:37;;;;;;;0.10;0.10;;;13.60;80.50;;;;;;6628603;21;19999;-74
2024/04/19 10:33:03;;;;;;;0.20;0.20;;;13.50;80.50;;;;;;6622502;21;20006;-74
2024/04/19 10:35:38;;;;;;;0.77;0.45;;;13.40;80.60;;;;;;6627348;21;20020;-67
2024/04/19 10:38:04;;;;;;;0.30;0.30;;;13.40;80.80;;;;;;6579985;21;19996;-67
2024/04/19 10:40:29;;;;;;;0.47;0.45;;;13.30;80.80;;;;;;6627915;21;20000;-74
2024/04/19 10:43:05;;;;;;;0.28;0.28;;;13.30;80.80;;;;;;6624010;21;20000;-74
2024/04/19 10:45:31;;;;;;;0.20;0.20;;;13.20;81.10;;;;;;6622132;21;19992;-74
2024/04/19 10:48:01;;;;;;;2.63;0.22;;;13.00;81.40;;;;;;6621474;21;20070;-74
2024/04/19 10:50:28;;;;;;;0.43;0.30;;;12.90;81.30;;;;;;6617490;21;19999;-74
2024/04/19 10:52:54;;;;;;;0.90;0.40;;;12.80;81.50;;;;;;6620008;21;20350;-74
2024/04/19 10:55:20;;;;;;;0.20;0.20;;;12.70;81.80;;;;;;6627461;21;20342;-68
2024/04/19 10:57:45;;;;;;;0.20;0.20;;;12.50;81.90;;;;;;6626174;21;20008;-68
2024/04/19 11:00:14;;;;;;;0.32;0.32;;;12.40;81.90;;;;;;6627239;21;20010;-68
2024/04/19 11:02:40;;;;;;;0.25;0.20;;;12.40;82.10;;;;;;6626801;21;19996;-73
2024/04/19 11:05:07;;;;;;;0.63;0.30;;;12.20;82.40;;;;;;6580479;21;19996;-73
2024/04/19 11:07:36;;;;;;;1.25;0.40;;;12.10;82.40;;;;;;6580705;21;19992;-74
2024/04/19 11:10:06;;;;;;;0.20;0.20;;;11.90;82.50;;;;;;6581485;21;20000;-74
2024/04/19 11:12:32;;;;;;;0.65;0.15;;;11.80;82.50;;;;;;6626399;21;20073;-74
2024/04/19 11:15:01;;;;;;;0.65;0.15;;;11.70;82.20;;;;;;6581575;21;20012;-74
2024/04/19 11:17:26;;;;;;;0.25;0.25;;;11.60;82.40;;;;;;6622003;21;20006;-74
2024/04/19 11:19:52;;;;;;;0.10;0.10;;;11.50;82.50;;;;;;6621480;21;20024;-74
2024/04/19 11:22:18;;;;;;;0.20;0.20;;;11.50;82.60;;;;;;6576975;21;20030;-74
2024/04/19 11:24:44;;;;;;;0.43;0.20;;;11.60;82.80;;;;;;6626298;21;19996;-74
2024/04/19 11:27:12;;;;;;;0.55;0.20;;;11.60;82.90;;;;;;6627358;21;19999;-74
2024/04/19 11:29:38;;;;;;;1.55;0.43;;;11.80;83.10;;;;;;6581416;21;20007;-74
2024/04/19 11:32:07;;;;;;;0.17;0.17;;;11.90;82.90;;;;;;6627828;21;20007;-74
2024/04/19 11:34:34;;;;;;;0.20;0.20;;;12.20;82.70;;;;;;6627402;21;20411;-74
2024/04/19 11:37:05;;;;;;;0.17;0.10;;;12.50;82.50;;;;;;6627391;21;19996;-74
2024/04/19 11:39:32;;;;;;;0.38;0.28;;;12.80;81.90;;;;;;6627271;21;20014;-74
2024/04/19 11:41:57;;;;;;;0.60;0.60;;;12.90;81.00;;;;;;6628162;21;20011;-74
2024/04/19 11:44:23;;;;;;;0.30;0.30;;;12.80;81.00;;;;;;6580845;21;20437;-74
2024/04/19 11:46:49;;;;;;;2.17;0.20;;;12.60;80.50;;;;;;6628063;21;19995;-67
2024/04/19 11:49:16;;;;;;;0.10;0.10;;;12.60;81.10;;;;;;6581107;21;20010;-67
2024/04/19 11:51:44;;;;;;;0.22;0.17;;;12.70;81.20;;;;;;6626863;21;20055;-67
2024/04/19 11:54:10;;;;;;;0.22;0.22;;;12.90;81.00;;;;;;6626795;21;20301;-67
2024/04/19 11:56:36;;;;;;;0.10;0.10;;;12.90;80.70;;;;;;6627025;21;19995;-67
2024/04/19 11:59:02;;;;;;;0.40;0.35;;;12.90;80.50;;;;;;6625667;21;20032;-66
2024/04/19 12:01:28;;;;;;;0.75;0.35;;;12.80;80.40;;;;;;6628587;21;19996;-66
2024/04/19 12:03:54;;;;;;;0.68;0.38;;;12.70;80.70;;;;;;6581274;21;20015;-66
2024/04/19 12:06:23;;;;;;;0.22;0.20;;;12.60;80.60;;;;;;6580305;21;20032;-66
2024/04/19 12:08:50;;;;;;;0.52;0.20;;;12.50;80.80;;;;;;6627281;21;19995;-66
2024/04/19 12:11:16;;;;;;;1.00;0.40;;;12.40;81.20;;;;;;6627735;21;20401;-66
2024/04/19 12:13:45;;;;;;;0.40;0.40;;;12.50;81.30;;;;;;6626957;21;20284;-66
2024/04/19 12:16:10;;;;;;;0.30;0.30;;;12.70;81.10;;;;;;6627150;21;20415;-66
2024/04/19 12:18:39;;;;;;;1.20;0.28;;;13.00;80.40;;;;;;6626230;21;20014;-66
2024/04/19 12:21:05;;;;;;;0.10;0.10;;;13.10;79.70;;;;;;6627849;21;19996;-66
2024/04/19 12:23:31;;;;;;;0.43;0.20;;;13.20;79.40;;;;;;6629285;21;20010;-74
2024/04/19 12:25:57;;;;;;;0.43;0.20;;;13.30;79.20;;;;;;6630031;21;20000;-74
2024/04/19 12:28:24;;;;;;;0.32;0.20;;;13.30;79.30;;;;;;6581799;21;19996;-74
2024/04/19 12:30:54;;;;;;;0.20;0.20;;;13.30;79.60;;;;;;6630186;21;20427;-74
2024/04/19 12:33:20;;;;;;;0.52;0.38;;;13.10;79.60;;;;;;6629339;21;20006;-74
2024/04/19 12:35:46;;;;;;;0.75;0.32;;;12.90;79.30;;;;;;6629941;21;20004;-74
2024/04/19 12:38:12;;;;;;;0.25;0.20;;;12.60;79.70;;;;;;6628694;21;20007;-67
2024/04/19 12:40:38;;;;;;;1.95;0.30;;;12.50;80.00;;;;;;6629889;21;20016;-68
2024/04/19 12:43:04;;;;;;;0.20;0.20;;;12.40;80.30;;;;;;6629281;21;19999;-74
2024/04/19 12:45:32;;;;;;;1.00;0.40;;;12.20;80.40;;;;;;6629672;21;19996;-74
2024/04/19 12:48:06;;;;;;;0.20;0.20;;;12.00;80.50;;;;;;6628663;21;20015;-75
2024/04/19 12:50:35;;;;;;;0.30;0.30;;;11.90;80.90;;;;;;6628746;21;19996;-74